Time;durP1;ratioP1;P1;durP2;ratioP2;P2;SDS_P1;SDS_P2;PMS_P1;PMS_P2;Temp;Humidity;BMP_temperature;BMP_pressure;BME280_temperature;BME280_humidity;BME280_pressure;Samples;Min_cycle;Max_cycle;Signal;HPM_P1;HPM_P2
2022/08/22 00:02:31;;;;;;;10.73;9.73;;;14.30;99.90;;;;;;5011694;28;20431;-52
2022/08/22 00:05:22;;;;;;;12.07;10.87;;;14.30;99.90;;;;;;5021528;28;21249;-56
2022/08/22 00:08:11;;;;;;;10.73;9.63;;;14.30;99.90;;;;;;5021672;28;20486;-57
2022/08/22 00:10:55;;;;;;;11.47;10.47;;;14.30;99.90;;;;;;5033055;28;20432;-57
2022/08/22 00:13:32;;;;;;;10.43;8.87;;;14.20;99.90;;;;;;5032805;28;20834;-53
2022/08/22 00:16:07;;;;;;;11.50;10.40;;;14.20;99.90;;;;;;5032127;28;20750;-55
2022/08/22 00:18:49;;;;;;;11.57;9.87;;;14.20;99.90;;;;;;5032919;28;20453;-57
2022/08/22 00:21:31;;;;;;;10.93;9.77;;;14.20;99.90;;;;;;5032031;28;20418;-56
2022/08/22 00:24:39;;;;;;;11.13;10.13;;;14.20;99.90;;;;;;5031286;28;20457;-57
2022/08/22 00:27:12;;;;;;;11.00;10.00;;;14.10;99.90;;;;;;5031648;28;20789;-55
2022/08/22 00:29:43;;;;;;;12.20;11.10;;;14.10;99.90;;;;;;5031776;28;20429;-55
2022/08/22 00:32:22;;;;;;;11.70;10.27;;;14.10;99.90;;;;;;5031063;28;20972;-53
2022/08/22 00:35:00;;;;;;;11.80;10.70;;;14.00;99.90;;;;;;5028808;28;20506;-56
2022/08/22 00:37:31;;;;;;;12.07;10.87;;;14.00;99.90;;;;;;5024976;28;20888;-51
2022/08/22 00:40:32;;;;;;;12.43;11.23;;;14.00;99.90;;;;;;5031651;28;20421;-58
2022/08/22 00:43:01;;;;;;;11.77;10.57;;;14.00;99.90;;;;;;5011063;28;20531;-57
2022/08/22 00:45:35;;;;;;;12.80;10.73;;;14.00;99.90;;;;;;5023533;28;20480;-53
2022/08/22 00:48:23;;;;;;;12.53;11.33;;;14.00;99.90;;;;;;5031610;28;20417;-56
2022/08/22 00:50:58;;;;;;;11.60;10.30;;;13.90;99.90;;;;;;5033452;28;20892;-56
2022/08/22 00:53:56;;;;;;;11.47;10.07;;;13.90;99.90;;;;;;5020200;28;20974;-55
2022/08/22 00:56:24;;;;;;;12.60;10.70;;;13.90;99.90;;;;;;5024167;28;20439;-55
2022/08/22 00:59:03;;;;;;;12.40;10.33;;;13.90;99.90;;;;;;5031391;28;20491;-57
2022/08/22 01:01:35;;;;;;;11.63;10.47;;;13.90;99.90;;;;;;5031319;28;20452;-58
2022/08/22 01:04:40;;;;;;;13.80;10.90;;;13.90;99.90;;;;;;5028310;28;20449;-57
2022/08/22 01:07:20;;;;;;;13.80;9.73;;;13.90;99.90;;;;;;5032181;28;20426;-53
2022/08/22 01:10:21;;;;;;;11.33;10.20;;;13.90;99.90;;;;;;5032795;28;20432;-57
2022/08/22 01:13:14;;;;;;;11.90;10.77;;;13.90;99.90;;;;;;5031054;28;20437;-51
2022/08/22 01:15:41;;;;;;;11.40;10.20;;;13.80;99.90;;;;;;5030241;28;20437;-49
2022/08/22 01:18:22;;;;;;;11.73;10.63;;;13.80;99.90;;;;;;5031877;28;20425;-47
2022/08/22 01:21:18;;;;;;;11.23;10.13;;;13.80;99.90;;;;;;5031505;28;20436;-47
2022/08/22 01:24:11;;;;;;;13.70;10.73;;;13.80;99.90;;;;;;5026885;28;20422;-51
2022/08/22 01:27:14;;;;;;;11.50;10.60;;;13.80;99.90;;;;;;5029501;28;20473;-50
2022/08/22 01:29:53;;;;;;;12.00;10.90;;;13.80;99.90;;;;;;5031057;28;20433;-50
2022/08/22 01:32:56;;;;;;;13.07;10.50;;;13.80;99.90;;;;;;5029580;28;20433;-52
2022/08/22 01:35:33;;;;;;;10.83;9.77;;;13.80;99.90;;;;;;5031074;28;20421;-49
2022/08/22 01:38:33;;;;;;;10.80;9.73;;;13.80;99.90;;;;;;5029249;28;20942;-50
2022/08/22 01:41:46;;;;;;;11.27;10.17;;;13.80;99.90;;;;;;5030621;28;20390;-49
2022/08/22 01:44:39;;;;;;;10.60;9.60;;;13.80;99.90;;;;;;5030380;28;20488;-48
2022/08/22 01:47:15;;;;;;;11.10;10.10;;;13.80;99.90;;;;;;5030394;28;20487;-51
2022/08/22 01:49:47;;;;;;;10.67;9.77;;;13.70;99.90;;;;;;5030749;28;20421;-52
2022/08/22 01:52:43;;;;;;;11.50;10.50;;;13.80;99.90;;;;;;5030529;28;20403;-49
2022/08/22 01:55:32;;;;;;;11.47;10.27;;;13.70;99.90;;;;;;5012665;28;20940;-48
2022/08/22 01:58:12;;;;;;;10.63;9.73;;;13.80;99.90;;;;;;5025739;28;20543;-49
2022/08/22 02:01:10;;;;;;;11.37;10.20;;;13.70;99.90;;;;;;5030162;28;21154;-49
2022/08/22 02:03:54;;;;;;;11.57;10.47;;;13.70;99.90;;;;;;5029820;28;20444;-46
2022/08/22 02:06:32;;;;;;;11.10;10.10;;;13.70;99.90;;;;;;5038278;28;20416;-49
2022/08/22 02:09:21;;;;;;;11.83;10.43;;;13.70;99.90;;;;;;5034020;28;20449;-47
2022/08/22 02:11:56;;;;;;;11.60;10.50;;;13.70;99.90;;;;;;5029931;28;20760;-50
2022/08/22 02:14:31;;;;;;;11.60;10.00;;;13.70;99.90;;;;;;5030043;28;20467;-47
2022/08/22 02:17:20;;;;;;;11.73;10.50;;;13.70;99.90;;;;;;5030765;28;20919;-49
2022/08/22 02:20:00;;;;;;;10.90;9.80;;;13.70;99.90;;;;;;5017391;28;21116;-50
2022/08/22 02:22:56;;;;;;;11.37;10.27;;;13.70;99.90;;;;;;5025824;28;21159;-49
2022/08/22 02:25:33;;;;;;;10.53;9.57;;;13.70;99.90;;;;;;5019358;28;20457;-47
2022/08/22 02:28:11;;;;;;;10.70;9.70;;;13.60;99.90;;;;;;5037148;28;21006;-49
2022/08/22 02:31:00;;;;;;;10.80;9.70;;;13.60;99.90;;;;;;5029725;28;20421;-51
2022/08/22 02:33:45;;;;;;;12.90;10.30;;;13.60;99.90;;;;;;5031370;28;20571;-50
2022/08/22 02:36:20;;;;;;;10.60;9.70;;;13.70;99.90;;;;;;5024427;28;20414;-51
2022/08/22 02:39:26;;;;;;;11.53;10.33;;;13.70;99.90;;;;;;5029743;28;20409;-49
2022/08/22 02:41:54;;;;;;;11.40;10.40;;;13.70;99.90;;;;;;5030427;28;20413;-50
2022/08/22 02:44:31;;;;;;;11.00;9.80;;;13.70;99.90;;;;;;5029616;28;20987;-49
2022/08/22 02:47:15;;;;;;;11.27;10.00;;;13.70;99.90;;;;;;5029222;28;20413;-50
2022/08/22 02:50:10;;;;;;;11.10;10.10;;;13.70;99.90;;;;;;5028257;28;20414;-50
2022/08/22 02:52:54;;;;;;;11.33;10.23;;;13.80;99.90;;;;;;5029371;28;20771;-51
2022/08/22 02:55:46;;;;;;;10.70;9.63;;;13.70;99.90;;;;;;5028503;28;20414;-47
2022/08/22 02:58:37;;;;;;;11.23;10.13;;;13.60;99.90;;;;;;5027718;28;20476;-47
2022/08/22 03:01:21;;;;;;;11.37;10.37;;;13.70;99.90;;;;;;5029144;28;20895;-48
2022/08/22 03:03:47;;;;;;;11.03;9.80;;;13.70;99.90;;;;;;5028304;28;20413;-50
2022/08/22 03:06:34;;;;;;;10.57;9.50;;;13.70;99.90;;;;;;5029551;28;20912;-50
2022/08/22 03:09:17;;;;;;;10.67;9.67;;;13.70;99.90;;;;;;5030480;28;20413;-50
2022/08/22 03:11:48;;;;;;;10.57;9.47;;;13.70;99.90;;;;;;5029894;28;20418;-49
2022/08/22 03:14:27;;;;;;;14.00;10.17;;;13.60;99.90;;;;;;5029026;28;20462;-49
2022/08/22 03:17:37;;;;;;;11.67;9.70;;;13.70;99.90;;;;;;5029309;28;20916;-54
2022/08/22 03:20:11;;;;;;;10.63;9.53;;;13.70;99.90;;;;;;5013911;28;20444;-47
2022/08/22 03:23:01;;;;;;;10.50;9.50;;;13.70;99.90;;;;;;5026135;28;20842;-50
2022/08/22 03:26:08;;;;;;;11.13;10.03;;;13.70;99.90;;;;;;5028879;28;20444;-47
2022/08/22 03:28:50;;;;;;;10.13;9.30;;;13.80;99.90;;;;;;5032842;28;20445;-48
2022/08/22 03:31:19;;;;;;;10.97;9.47;;;13.80;99.90;;;;;;5031602;28;20437;-50
2022/08/22 03:34:15;;;;;;;11.07;9.93;;;13.80;99.90;;;;;;5033082;28;20464;-51
2022/08/22 03:37:04;;;;;;;11.40;10.17;;;13.80;99.90;;;;;;5033003;28;20417;-48
2022/08/22 03:39:49;;;;;;;10.73;9.77;;;13.80;99.90;;;;;;5021235;28;20413;-49
2022/08/22 03:42:44;;;;;;;10.87;9.90;;;13.80;99.90;;;;;;5033418;28;20417;-49
2022/08/22 03:45:33;;;;;;;10.47;9.47;;;13.90;99.90;;;;;;5032650;28;20421;-51
2022/08/22 03:48:08;;;;;;;10.93;9.90;;;13.80;99.90;;;;;;5022250;28;20479;-50
2022/08/22 03:50:58;;;;;;;10.33;9.33;;;13.90;99.90;;;;;;5030771;28;20420;-52
2022/08/22 03:53:48;;;;;;;10.63;9.60;;;13.90;99.90;;;;;;5032351;28;20450;-46
2022/08/22 03:56:52;;;;;;;10.50;9.60;;;13.90;99.90;;;;;;5030291;28;20432;-50
2022/08/22 03:59:42;;;;;;;11.20;10.30;;;13.90;99.90;;;;;;5031318;28;20448;-50
2022/08/22 04:02:43;;;;;;;10.30;9.17;;;13.90;99.90;;;;;;5029724;28;20922;-48
2022/08/22 04:05:39;;;;;;;10.43;9.53;;;13.90;99.90;;;;;;4950851;28;21021;-52
2022/08/22 04:08:07;;;;;;;11.13;10.03;;;13.90;99.90;;;;;;5032778;28;20460;-50
2022/08/22 04:10:39;;;;;;;10.83;9.93;;;13.90;99.90;;;;;;5032156;28;20478;-52
2022/08/22 04:13:28;;;;;;;11.40;10.40;;;13.90;99.90;;;;;;5030729;28;20552;-53
2022/08/22 04:16:23;;;;;;;11.63;10.60;;;13.90;99.90;;;;;;5017100;28;20442;-52
2022/08/22 04:19:11;;;;;;;12.07;10.53;;;14.00;99.90;;;;;;5038325;28;20420;-51
2022/08/22 04:21:58;;;;;;;11.47;10.47;;;14.00;99.90;;;;;;5041282;28;20472;-48
2022/08/22 04:24:36;;;;;;;11.47;10.57;;;13.90;99.90;;;;;;5040246;28;20981;-53
2022/08/22 04:27:28;;;;;;;11.70;10.50;;;13.90;99.90;;;;;;5033183;28;20424;-49
2022/08/22 04:30:09;;;;;;;10.53;9.53;;;14.00;99.90;;;;;;5043501;28;20787;-50
2022/08/22 04:32:55;;;;;;;11.90;10.83;;;14.00;99.90;;;;;;5042160;28;20406;-51
2022/08/22 04:35:36;;;;;;;14.83;11.03;;;14.00;99.90;;;;;;5039217;28;21201;-53
2022/08/22 04:38:41;;;;;;;10.80;9.90;;;14.00;99.90;;;;;;5036632;28;20429;-49
2022/08/22 04:41:23;;;;;;;10.40;9.50;;;14.10;99.90;;;;;;5013470;28;21097;-49
2022/08/22 04:44:01;;;;;;;10.67;9.70;;;14.10;99.90;;;;;;5032316;28;20417;-47
2022/08/22 04:46:37;;;;;;;11.13;10.03;;;14.20;99.90;;;;;;5025718;28;20437;-56
2022/08/22 04:49:25;;;;;;;12.20;10.93;;;14.20;99.90;;;;;;5010240;28;20435;-56
2022/08/22 04:52:01;;;;;;;10.20;9.30;;;14.20;99.90;;;;;;5017410;28;20474;-55
2022/08/22 04:54:45;;;;;;;11.10;9.87;;;14.30;99.90;;;;;;5018995;28;20472;-57
2022/08/22 04:57:41;;;;;;;12.13;10.60;;;14.30;99.90;;;;;;5030676;28;20477;-55
2022/08/22 05:00:10;;;;;;;10.97;10.07;;;14.30;99.90;;;;;;5038679;28;20434;-56
2022/08/22 05:02:38;;;;;;;10.77;9.60;;;14.40;99.90;;;;;;5032424;28;20448;-54
2022/08/22 05:05:11;;;;;;;11.70;10.53;;;14.40;99.90;;;;;;5038547;28;20423;-57
2022/08/22 05:07:44;;;;;;;11.33;10.20;;;14.50;99.90;;;;;;5032061;28;20414;-52
2022/08/22 05:10:21;;;;;;;12.73;11.43;;;14.50;99.90;;;;;;5040362;28;20409;-54
2022/08/22 05:12:53;;;;;;;13.23;11.37;;;14.60;99.90;;;;;;5037345;28;20412;-55
2022/08/22 05:15:23;;;;;;;12.50;11.10;;;14.70;99.90;;;;;;5006922;28;20470;-56
2022/08/22 05:17:52;;;;;;;17.60;12.30;;;14.70;99.90;;;;;;5029212;28;20480;-55
2022/08/22 05:20:22;;;;;;;10.93;9.83;;;14.70;99.90;;;;;;5028765;28;20406;-57
2022/08/22 05:23:02;;;;;;;11.57;10.47;;;14.80;99.90;;;;;;5029238;28;20954;-57
2022/08/22 05:25:34;;;;;;;11.70;10.50;;;14.80;99.90;;;;;;5027789;28;20406;-56
2022/08/22 05:28:26;;;;;;;10.90;9.43;;;14.90;99.90;;;;;;5026549;28;20749;-59
2022/08/22 05:30:53;;;;;;;10.63;9.73;;;15.00;99.90;;;;;;5028689;28;20406;-55
2022/08/22 05:33:28;;;;;;;11.13;10.13;;;15.00;99.90;;;;;;5025205;28;20504;-53
2022/08/22 05:36:07;;;;;;;9.93;9.03;;;15.10;99.90;;;;;;5030687;28;20457;-56
2022/08/22 05:38:38;;;;;;;10.80;8.97;;;15.20;99.90;;;;;;5030388;28;20422;-54
2022/08/22 05:41:10;;;;;;;10.20;9.20;;;15.30;99.90;;;;;;5031518;28;20411;-57
2022/08/22 05:43:40;;;;;;;11.60;9.67;;;15.40;99.90;;;;;;5030514;28;20418;-55
2022/08/22 05:46:16;;;;;;;10.97;10.03;;;15.50;99.90;;;;;;5029486;28;20456;-55
2022/08/22 05:48:48;;;;;;;11.00;9.50;;;15.60;99.90;;;;;;5029410;28;20791;-57
2022/08/22 05:51:24;;;;;;;9.47;8.67;;;15.60;99.90;;;;;;5029813;28;20888;-57
2022/08/22 05:54:11;;;;;;;10.10;9.13;;;15.60;99.90;;;;;;5027575;28;20487;-58
2022/08/22 05:56:42;;;;;;;9.20;8.47;;;15.70;99.90;;;;;;5029002;28;20437;-48
2022/08/22 05:59:23;;;;;;;9.40;8.60;;;15.90;99.90;;;;;;5028084;28;20440;-51
2022/08/22 06:02:11;;;;;;;10.17;9.17;;;15.90;99.90;;;;;;5023525;28;20421;-53
2022/08/22 06:04:39;;;;;;;10.60;9.50;;;16.00;99.90;;;;;;5031008;28;20446;-52
2022/08/22 06:07:15;;;;;;;10.50;9.60;;;16.10;99.90;;;;;;5036299;28;20427;-53
2022/08/22 06:09:47;;;;;;;10.90;9.90;;;16.20;99.90;;;;;;5029399;28;20594;-49
2022/08/22 06:12:28;;;;;;;10.30;9.30;;;16.20;99.90;;;;;;5031864;28;20502;-51
2022/08/22 06:15:13;;;;;;;9.97;9.07;;;16.30;99.90;;;;;;5029802;28;20848;-53
2022/08/22 06:18:01;;;;;;;10.17;9.37;;;16.30;99.90;;;;;;5029834;28;20851;-51
2022/08/22 06:20:52;;;;;;;10.50;9.50;;;16.40;99.90;;;;;;5028836;28;20424;-49
2022/08/22 06:23:36;;;;;;;10.17;9.27;;;16.40;99.90;;;;;;5030272;28;20419;-51
2022/08/22 06:26:04;;;;;;;10.10;9.20;;;16.50;99.90;;;;;;5029916;28;20774;-49
2022/08/22 06:28:53;;;;;;;10.77;9.80;;;16.60;99.90;;;;;;5030386;28;20538;-50
2022/08/22 06:31:24;;;;;;;10.07;9.03;;;16.70;99.90;;;;;;5028149;28;20946;-49
2022/08/22 06:34:02;;;;;;;12.53;9.50;;;16.80;99.90;;;;;;5029649;28;20464;-50
2022/08/22 06:36:29;;;;;;;9.90;9.10;;;16.90;99.90;;;;;;5029362;28;20473;-47
2022/08/22 06:38:55;;;;;;;10.23;9.20;;;17.00;99.90;;;;;;5023006;28;20436;-47
2022/08/22 06:41:24;;;;;;;12.23;9.30;;;17.00;99.90;;;;;;5022271;28;20437;-48
2022/08/22 06:43:51;;;;;;;11.27;10.27;;;17.10;99.90;;;;;;5028732;28;20190;-49
2022/08/22 06:46:19;;;;;;;10.00;9.20;;;17.10;99.90;;;;;;5029257;28;20556;-55
2022/08/22 06:48:46;;;;;;;10.73;9.73;;;17.30;99.90;;;;;;5029095;28;20926;-47
2022/08/22 06:51:15;;;;;;;10.80;9.80;;;17.30;99.90;;;;;;5029147;28;20417;-49
2022/08/22 06:53:48;;;;;;;10.50;9.60;;;17.40;99.90;;;;;;5029275;28;20453;-47
2022/08/22 06:56:20;;;;;;;11.20;10.10;;;17.40;99.90;;;;;;5030059;28;20417;-57
2022/08/22 06:58:48;;;;;;;10.03;9.13;;;17.60;99.90;;;;;;5029261;28;21161;-57
2022/08/22 07:01:19;;;;;;;10.47;9.60;;;17.70;99.90;;;;;;5029301;28;20772;-58
2022/08/22 07:04:07;;;;;;;10.00;9.07;;;17.90;99.90;;;;;;5029094;28;20414;-56
2022/08/22 07:06:40;;;;;;;9.77;9.07;;;18.00;99.90;;;;;;5028206;28;20525;-48
2022/08/22 07:09:18;;;;;;;10.87;9.87;;;18.20;99.90;;;;;;5027704;28;20429;-52
2022/08/22 07:11:44;;;;;;;11.03;10.00;;;18.40;99.90;;;;;;5028503;28;20922;-47
2022/08/22 07:14:15;;;;;;;10.40;9.60;;;18.50;99.90;;;;;;5029741;28;20494;-52
2022/08/22 07:16:50;;;;;;;10.20;9.40;;;18.50;99.90;;;;;;5029112;28;20401;-49
2022/08/22 07:19:23;;;;;;;9.50;8.70;;;18.50;99.90;;;;;;5027710;28;20935;-53
2022/08/22 07:21:48;;;;;;;10.00;9.10;;;18.60;99.90;;;;;;5029195;28;20444;-47
2022/08/22 07:24:23;;;;;;;11.53;10.33;;;18.80;99.90;;;;;;5029481;28;20453;-48
2022/08/22 07:27:04;;;;;;;10.43;9.53;;;18.90;99.90;;;;;;5028920;28;20178;-54
2022/08/22 07:29:36;;;;;;;10.27;9.37;;;19.00;99.90;;;;;;5025675;28;20511;-47
2022/08/22 07:32:18;;;;;;;12.17;10.97;;;19.20;99.90;;;;;;5026297;28;20477;-54
2022/08/22 07:35:01;;;;;;;10.50;9.00;;;19.40;99.90;;;;;;5028898;28;20465;-52
2022/08/22 07:37:46;;;;;;;11.40;9.77;;;19.50;99.90;;;;;;5030481;28;20410;-51
2022/08/22 07:40:17;;;;;;;9.77;8.77;;;19.50;99.90;;;;;;5017323;28;20429;-52
2022/08/22 07:42:48;;;;;;;9.80;8.87;;;19.80;99.90;;;;;;5033195;28;20467;-46
2022/08/22 07:45:31;;;;;;;10.07;9.23;;;19.90;99.90;;;;;;5033684;28;20418;-47
2022/08/22 07:48:02;;;;;;;10.10;9.20;;;20.10;99.90;;;;;;5029448;28;20409;-47
2022/08/22 07:50:39;;;;;;;9.70;8.90;;;20.30;99.90;;;;;;5028542;28;20415;-47
2022/08/22 07:53:24;;;;;;;11.80;10.60;;;20.50;99.90;;;;;;5028680;28;20469;-46
2022/08/22 07:55:52;;;;;;;10.90;9.90;;;20.60;99.90;;;;;;5028669;28;20441;-52
2022/08/22 07:58:22;;;;;;;11.90;10.80;;;20.70;99.90;;;;;;5025914;28;20544;-53
2022/08/22 08:00:49;;;;;;;10.60;9.77;;;20.70;99.90;;;;;;5026917;28;21012;-50
2022/08/22 08:03:16;;;;;;;11.27;10.13;;;20.90;99.90;;;;;;5027111;28;20444;-52
2022/08/22 08:05:43;;;;;;;10.30;9.40;;;21.00;99.90;;;;;;5027792;28;20504;-52
2022/08/22 08:08:33;;;;;;;10.83;9.93;;;21.10;99.90;;;;;;5027929;28;20466;-51
2022/08/22 08:11:01;;;;;;;11.67;10.43;;;21.30;99.90;;;;;;5025283;28;20798;-51
2022/08/22 08:13:36;;;;;;;10.73;9.83;;;21.50;99.90;;;;;;5030569;28;20492;-50
2022/08/22 08:16:05;;;;;;;10.80;9.90;;;21.70;99.90;;;;;;5032013;28;20423;-46
2022/08/22 08:18:34;;;;;;;11.63;10.13;;;21.70;99.90;;;;;;5031919;28;20414;-50
2022/08/22 08:21:04;;;;;;;10.33;9.33;;;21.70;99.90;;;;;;5032524;28;20793;-55
2022/08/22 08:23:36;;;;;;;10.03;9.13;;;21.80;99.90;;;;;;5032169;28;20423;-47
2022/08/22 08:26:16;;;;;;;10.23;9.33;;;22.00;99.90;;;;;;5031532;28;20445;-51
2022/08/22 08:28:49;;;;;;;9.00;8.30;;;22.30;99.90;;;;;;5028481;28;20437;-51
2022/08/22 08:31:23;;;;;;;11.13;10.13;;;22.30;99.90;;;;;;5032113;28;20420;-51
2022/08/22 08:34:02;;;;;;;10.07;9.27;;;22.50;99.90;;;;;;5031037;28;20500;-50
2022/08/22 08:36:54;;;;;;;9.20;8.40;;;22.60;99.90;;;;;;5030274;28;20425;-52
2022/08/22 08:39:42;;;;;;;8.97;8.10;;;22.80;99.90;;;;;;5032013;28;20907;-52
2022/08/22 08:42:19;;;;;;;8.57;7.97;;;22.90;99.90;;;;;;5032113;28;20421;-52
2022/08/22 08:45:32;;;;;;;8.47;7.87;;;23.10;99.30;;;;;;5020733;28;20417;-51
2022/08/22 08:48:25;;;;;;;9.07;8.27;;;23.40;99.30;;;;;;5030344;28;20496;-48
2022/08/22 08:51:30;;;;;;;8.63;8.03;;;23.80;98.70;;;;;;5031269;28;20432;-48
2022/08/22 08:54:10;;;;;;;7.87;7.27;;;24.10;97.10;;;;;;5029503;28;21198;-46
2022/08/22 08:57:05;;;;;;;8.27;7.67;;;24.40;96.10;;;;;;5030741;28;20421;-49
2022/08/22 08:59:50;;;;;;;7.83;7.17;;;25.00;95.70;;;;;;5023359;28;20445;-47
2022/08/22 09:02:46;;;;;;;8.47;7.67;;;25.20;93.10;;;;;;5030605;28;20819;-52
2022/08/22 09:05:38;;;;;;;8.70;6.47;;;25.50;91.90;;;;;;5031536;28;20503;-47
2022/08/22 09:08:25;;;;;;;7.93;6.67;;;25.90;90.50;;;;;;5031465;28;20434;-50
2022/08/22 09:11:29;;;;;;;6.70;6.20;;;25.90;87.90;;;;;;5018826;28;20411;-49
2022/08/22 09:14:25;;;;;;;6.50;6.00;;;26.20;87.20;;;;;;5032070;28;20961;-49
2022/08/22 09:17:48;;;;;;;7.30;6.80;;;26.20;84.70;;;;;;5031136;28;20930;-49
2022/08/22 09:20:16;;;;;;;10.03;7.37;;;25.80;85.40;;;;;;5014958;28;21283;-48
2022/08/22 09:23:23;;;;;;;6.97;6.43;;;25.50;85.50;;;;;;5006136;28;20956;-51
2022/08/22 09:26:01;;;;;;;6.50;6.07;;;25.50;83.90;;;;;;4995230;28;20467;-50
2022/08/22 09:28:51;;;;;;;7.00;6.50;;;25.60;86.10;;;;;;5008628;28;20524;-50
2022/08/22 09:31:28;;;;;;;7.77;7.17;;;25.50;86.80;;;;;;4987646;28;20425;-47
2022/08/22 09:34:09;;;;;;;6.60;6.00;;;25.60;85.40;;;;;;5024781;28;21112;-49
2022/08/22 09:37:03;;;;;;;12.73;6.90;;;25.30;85.90;;;;;;5021894;28;20426;-51
2022/08/22 09:39:33;;;;;;;6.63;6.13;;;25.20;86.80;;;;;;4995919;28;20443;-53
2022/08/22 09:42:22;;;;;;;6.53;6.13;;;24.90;89.10;;;;;;5008765;28;20877;-48
2022/08/22 09:44:48;;;;;;;6.27;5.77;;;25.00;86.50;;;;;;5007952;28;20518;-46
2022/08/22 09:47:31;;;;;;;6.33;5.83;;;25.10;86.40;;;;;;5008662;28;20433;-47
2022/08/22 09:50:00;;;;;;;6.10;5.60;;;25.10;84.90;;;;;;5008384;28;20433;-52
2022/08/22 09:52:45;;;;;;;5.70;5.30;;;25.10;84.60;;;;;;5028442;28;20417;-54
2022/08/22 09:55:32;;;;;;;5.30;4.80;;;25.00;82.50;;;;;;5029099;28;20979;-52
2022/08/22 09:58:05;;;;;;;6.03;5.57;;;24.90;81.10;;;;;;5028867;28;20584;-55
2022/08/22 10:00:39;;;;;;;5.13;4.83;;;25.00;82.40;;;;;;5030704;28;20432;-50
2022/08/22 10:03:23;;;;;;;5.83;5.33;;;25.10;79.20;;;;;;5029993;28;20417;-53
2022/08/22 10:05:59;;;;;;;5.20;4.80;;;25.00;78.20;;;;;;5029802;28;20444;-52
2022/08/22 10:08:43;;;;;;;4.93;4.53;;;25.10;78.10;;;;;;5029967;28;20926;-49
2022/08/22 10:11:49;;;;;;;5.50;5.13;;;25.40;77.20;;;;;;5030151;28;20421;-50
2022/08/22 10:14:24;;;;;;;5.60;5.20;;;25.60;74.30;;;;;;5028387;28;21103;-50
2022/08/22 10:16:56;;;;;;;5.77;5.37;;;25.90;71.10;;;;;;5029679;28;20473;-53
2022/08/22 10:19:27;;;;;;;5.50;5.10;;;26.00;68.80;;;;;;5029641;28;20421;-51
2022/08/22 10:22:30;;;;;;;5.53;5.23;;;26.30;66.80;;;;;;5030173;28;20432;-51
2022/08/22 10:25:35;;;;;;;5.33;5.03;;;26.40;68.00;;;;;;5029515;28;20413;-47
2022/08/22 10:28:38;;;;;;;6.07;5.67;;;26.70;66.20;;;;;;5029076;28;20500;-52
2022/08/22 10:31:26;;;;;;;6.90;6.40;;;27.20;62.90;;;;;;5017139;28;20429;-53
2022/08/22 10:34:19;;;;;;;5.50;5.10;;;27.70;60.40;;;;;;5028566;28;20480;-48
2022/08/22 10:37:15;;;;;;;6.63;6.23;;;28.20;57.60;;;;;;5022886;28;20780;-51
2022/08/22 10:40:04;;;;;;;6.70;6.20;;;28.40;58.20;;;;;;5030177;28;20430;-54
2022/08/22 10:42:40;;;;;;;6.47;5.97;;;28.30;57.30;;;;;;5029915;28;20466;-51
2022/08/22 10:45:18;;;;;;;6.47;6.07;;;28.60;56.30;;;;;;5029667;28;20479;-47
2022/08/22 10:47:49;;;;;;;6.03;5.43;;;28.50;54.20;;;;;;5037181;28;20405;-54
2022/08/22 10:50:21;;;;;;;6.70;6.27;;;28.00;55.10;;;;;;5039200;28;20433;-54
2022/08/22 10:53:28;;;;;;;6.63;6.17;;;27.70;56.50;;;;;;5021058;28;20445;-50
2022/08/22 10:55:42;;;;;;;6.07;5.77;;;27.60;58.80;;;;;;5029259;28;20901;-48
2022/08/22 10:58:12;;;;;;;6.40;6.00;;;27.60;58.00;;;;;;5029207;28;20472;-51
2022/08/22 11:00:56;;;;;;;7.50;6.20;;;27.40;57.40;;;;;;5031571;28;20763;-53
2022/08/22 11:03:41;;;;;;;5.33;5.03;;;27.10;56.90;;;;;;5033939;28;20453;-49
2022/08/22 11:06:24;;;;;;;5.67;5.37;;;27.00;57.70;;;;;;5028957;28;20521;-48
2022/08/22 11:09:07;;;;;;;6.03;5.63;;;27.00;57.50;;;;;;5032057;28;21010;-49
2022/08/22 11:11:54;;;;;;;5.57;5.17;;;27.10;56.60;;;;;;5028928;28;20425;-49
2022/08/22 11:14:43;;;;;;;5.47;4.97;;;27.00;55.80;;;;;;5027949;28;20994;-47
2022/08/22 11:17:27;;;;;;;5.60;5.20;;;26.70;56.20;;;;;;5026082;28;20524;-53
2022/08/22 11:19:55;;;;;;;5.90;5.50;;;26.70;57.40;;;;;;5029254;28;20420;-47
2022/08/22 11:22:32;;;;;;;6.30;5.90;;;26.70;55.00;;;;;;5032745;28;20487;-52
2022/08/22 11:25:07;;;;;;;6.67;6.17;;;26.60;55.80;;;;;;5028933;28;20452;-47
2022/08/22 11:28:07;;;;;;;6.73;6.03;;;26.70;57.00;;;;;;5029032;28;20486;-48
2022/08/22 11:30:42;;;;;;;5.90;5.60;;;26.70;57.50;;;;;;5017239;28;20466;-49
2022/08/22 11:33:19;;;;;;;6.00;5.60;;;27.00;56.90;;;;;;5028650;28;20815;-48
2022/08/22 11:36:30;;;;;;;6.30;5.90;;;27.20;57.10;;;;;;5028297;28;20565;-49
2022/08/22 11:38:58;;;;;;;6.37;5.97;;;27.20;56.00;;;;;;5028951;28;20425;-48
2022/08/22 11:41:32;;;;;;;5.70;5.40;;;27.20;55.20;;;;;;5034308;28;20425;-46
2022/08/22 11:44:12;;;;;;;6.10;5.70;;;27.10;54.40;;;;;;5028826;28;20905;-48
2022/08/22 11:46:42;;;;;;;5.80;5.40;;;26.80;55.50;;;;;;5029212;28;20405;-50
2022/08/22 11:49:48;;;;;;;5.97;5.67;;;26.70;57.20;;;;;;5032453;28;20397;-48
2022/08/22 11:52:36;;;;;;;5.97;5.57;;;26.60;57.10;;;;;;5032755;28;20413;-47
2022/08/22 11:55:17;;;;;;;6.63;6.23;;;26.40;59.40;;;;;;5032389;28;20540;-49
2022/08/22 11:57:53;;;;;;;6.20;5.80;;;26.20;59.00;;;;;;5032264;28;20467;-49
2022/08/22 12:00:29;;;;;;;6.80;6.23;;;26.10;59.30;;;;;;5038230;28;20451;-52
2022/08/22 12:03:33;;;;;;;6.00;5.60;;;26.20;60.20;;;;;;5040926;28;20418;-49
2022/08/22 12:06:01;;;;;;;6.63;6.17;;;26.30;59.10;;;;;;5031809;28;20641;-48
2022/08/22 12:08:34;;;;;;;6.07;5.67;;;26.30;60.80;;;;;;5033364;28;20421;-49
2022/08/22 12:11:14;;;;;;;6.10;5.70;;;26.20;60.70;;;;;;5032505;28;20499;-51
2022/08/22 12:13:49;;;;;;;6.67;6.27;;;25.90;63.10;;;;;;5032298;28;20838;-52
2022/08/22 12:16:33;;;;;;;5.83;5.43;;;25.70;59.90;;;;;;5031573;28;20809;-52
2022/08/22 12:19:26;;;;;;;5.97;5.57;;;25.60;59.60;;;;;;5032187;28;20410;-47
2022/08/22 12:22:13;;;;;;;6.60;6.10;;;25.50;61.00;;;;;;5031797;28;20417;-47
2022/08/22 12:25:05;;;;;;;6.17;5.77;;;25.60;62.40;;;;;;5039865;28;20473;-52
2022/08/22 12:27:56;;;;;;;6.67;6.07;;;25.60;59.50;;;;;;5050219;28;20991;-52
2022/08/22 12:30:40;;;;;;;6.10;5.80;;;25.70;60.20;;;;;;5031811;28;20931;-54
2022/08/22 12:33:26;;;;;;;6.53;6.03;;;25.60;58.70;;;;;;5031700;28;20491;-54
2022/08/22 12:36:23;;;;;;;6.30;5.83;;;25.60;58.90;;;;;;5031646;28;20420;-47
2022/08/22 12:39:08;;;;;;;5.77;5.20;;;25.80;58.80;;;;;;5031749;28;20410;-52
2022/08/22 12:41:37;;;;;;;5.47;5.17;;;25.90;57.80;;;;;;5034033;28;20439;-48
2022/08/22 12:44:21;;;;;;;5.97;5.57;;;25.80;58.10;;;;;;5038385;28;20504;-49
2022/08/22 12:46:58;;;;;;;5.90;5.50;;;26.00;58.30;;;;;;5039867;28;20609;-51
2022/08/22 12:49:35;;;;;;;5.30;4.90;;;26.00;58.50;;;;;;5041694;28;20416;-52
2022/08/22 12:52:30;;;;;;;5.30;4.90;;;26.00;57.50;;;;;;5039223;28;20438;-48
2022/08/22 12:55:33;;;;;;;5.27;4.87;;;25.90;55.20;;;;;;5037994;28;20945;-51
2022/08/22 12:58:29;;;;;;;5.63;5.23;;;25.60;57.60;;;;;;5036607;28;20464;-50
2022/08/22 13:01:01;;;;;;;5.33;5.03;;;25.60;59.00;;;;;;5038042;28;20437;-50
2022/08/22 13:03:34;;;;;;;5.13;4.83;;;25.30;58.10;;;;;;5039765;28;20972;-49
2022/08/22 13:06:24;;;;;;;5.80;5.50;;;25.20;58.40;;;;;;5035135;28;20963;-49
2022/08/22 13:08:51;;;;;;;6.50;6.10;;;25.10;58.60;;;;;;5031126;28;20425;-49
2022/08/22 13:11:18;;;;;;;5.87;5.57;;;24.90;60.70;;;;;;5030982;28;20482;-49
2022/08/22 13:13:49;;;;;;;6.63;6.03;;;24.90;58.70;;;;;;5031183;28;20574;-50
2022/08/22 13:16:19;;;;;;;6.40;5.80;;;24.90;59.80;;;;;;5031504;28;20436;-48
2022/08/22 13:18:55;;;;;;;6.27;5.77;;;24.80;61.60;;;;;;5030784;28;20419;-54
2022/08/22 13:21:30;;;;;;;6.60;6.00;;;24.50;58.70;;;;;;5030870;28;21120;-54
2022/08/22 13:24:02;;;;;;;5.57;5.27;;;24.20;59.10;;;;;;5030603;28;20435;-50
2022/08/22 13:26:30;;;;;;;6.50;6.10;;;24.20;59.30;;;;;;5030414;28;20738;-51
2022/08/22 13:29:25;;;;;;;6.47;6.07;;;24.30;59.50;;;;;;5031791;28;20534;-49
2022/08/22 13:31:59;;;;;;;5.83;5.50;;;24.20;59.60;;;;;;5023327;28;20467;-47
2022/08/22 13:34:43;;;;;;;5.20;4.90;;;24.30;58.90;;;;;;5021422;28;20975;-47
2022/08/22 13:37:17;;;;;;;6.10;5.70;;;24.30;58.60;;;;;;5028847;28;20938;-50
2022/08/22 13:39:46;;;;;;;5.67;5.30;;;24.20;59.90;;;;;;5028082;28;20422;-49
2022/08/22 13:42:22;;;;;;;6.23;5.73;;;24.10;59.80;;;;;;5028753;28;20454;-49
2022/08/22 13:44:52;;;;;;;6.50;6.10;;;23.80;59.00;;;;;;5031225;28;20426;-52
2022/08/22 13:47:21;;;;;;;6.20;5.70;;;23.80;62.50;;;;;;5030070;28;20424;-46
2022/08/22 13:50:05;;;;;;;6.07;5.77;;;23.90;61.30;;;;;;5030390;28;20425;-51
2022/08/22 13:52:41;;;;;;;5.63;5.33;;;23.90;61.80;;;;;;5031664;28;20425;-49